Graford, Texas
Current Conditions -  °F | °C
As of 9:53 PM on Tuesday 25 Nov 2014 (Local Time) from KMWL Reporting Station
Clear Clear  
Wind Chill: 38°   Ceiling: Unl
Heat Index: 42°   Visibility: 10mi
Dew Point: 31°   Wind: 7mph
Humidity: 65%   Direction: 150°SSE
Pressure: 30.12"   Gusts: NA
Location:  32.94°N, 98.25°W
Report Text: KMWL 260353Z AUTO 15006KT 10SM CLR 06/M01 A3012 RMK AO2 SLP198 T00561006
Loading
Personal Weather Stations






























Interactive Weather Map New forecast layout! Learn more

10-Day Weather Forecast

Advertisements
Track Severe Weather on mobile